Time;durP1;ratioP1;P1;durP2;ratioP2;P2;SDS_P1;SDS_P2;PMS_P1;PMS_P2;Temp;Humidity;BMP_temperature;BMP_pressure;BME280_temperature;BME280_humidity;BME280_pressure;Samples;Min_cycle;Max_cycle;Signal;HPM_P1;HPM_P2
2021/05/30 00:00:07;;;;;;;2.75;2.55;;;;;;;19.36;55.76;98866.44;5112909;28;20027;-82
2021/05/30 00:02:33;;;;;;;3.05;2.88;;;;;;;19.36;55.45;98866.44;5111775;28;20035;-82
2021/05/30 00:04:59;;;;;;;4.00;2.65;;;;;;;19.29;55.34;98866.22;5111217;28;20030;-82
2021/05/30 00:07:24;;;;;;;2.90;2.70;;;;;;;19.22;55.34;98863.28;5111030;28;20106;-82
2021/05/30 00:09:53;;;;;;;4.45;2.72;;;;;;;19.09;56.30;98859.78;5110797;28;20024;-82
2021/05/30 00:12:20;;;;;;;5.50;2.97;;;;;;;18.98;55.68;98864.84;5111395;28;20011;-82
2021/05/30 00:14:45;;;;;;;2.53;2.33;;;;;;;18.90;56.48;98864.94;5110863;28;20028;-82
2021/05/30 00:17:12;;;;;;;3.10;2.70;;;;;;;18.81;56.74;98868.50;5111130;28;20140;-82
2021/05/30 00:19:38;;;;;;;8.75;3.05;;;;;;;18.72;56.97;98868.63;5111067;28;20390;-82
2021/05/30 00:22:03;;;;;;;2.67;2.40;;;;;;;18.70;57.08;98876.28;5110968;28;20015;-82
2021/05/30 00:24:29;;;;;;;2.88;2.55;;;;;;;18.67;57.33;98876.94;5111088;28;20019;-82
2021/05/30 00:26:54;;;;;;;3.08;2.88;;;;;;;18.68;57.08;98870.38;5110385;28;20081;-82
2021/05/30 00:29:20;;;;;;;6.07;2.92;;;;;;;18.71;57.94;98868.94;5111016;28;20140;-82
2021/05/30 00:31:46;;;;;;;5.53;2.90;;;;;;;18.72;57.94;98867.81;5110751;28;20072;-82
2021/05/30 00:34:11;;;;;;;3.00;2.72;;;;;;;18.77;57.85;98872.22;5110718;28;20023;-82
2021/05/30 00:36:36;;;;;;;3.03;2.83;;;;;;;18.75;57.91;98871.75;5110857;28;20100;-82
2021/05/30 00:39:03;;;;;;;3.15;2.92;;;;;;;18.78;57.97;98871.09;5110520;28;20776;-82
2021/05/30 00:41:28;;;;;;;3.47;2.60;;;;;;;18.79;58.24;98869.97;5110769;28;20035;-82
2021/05/30 00:43:55;;;;;;;3.90;3.08;;;;;;;18.80;58.06;98872.34;5110387;28;20355;-82
2021/05/30 00:46:21;;;;;;;3.08;2.88;;;;;;;18.79;58.21;98876.19;5110929;28;20409;-82
2021/05/30 00:48:48;;;;;;;2.95;2.75;;;;;;;18.80;58.25;98868.84;5110380;28;20023;-82
2021/05/30 00:51:14;;;;;;;3.97;3.33;;;;;;;18.77;58.30;98874.94;5110660;28;20031;-82
2021/05/30 00:53:42;;;;;;;4.43;3.15;;;;;;;18.73;58.64;98872.09;5110561;28;20027;-82
2021/05/30 00:56:09;;;;;;;3.90;2.60;;;;;;;18.73;58.80;98880.22;5110414;28;20499;-82
2021/05/30 00:58:35;;;;;;;3.53;3.22;;;;;;;18.70;59.19;98870.03;5110567;28;20023;-82
2021/05/30 01:01:01;;;;;;;3.42;3.13;;;;;;;18.67;59.24;98871.50;5110296;28;20024;-82
2021/05/30 01:03:27;;;;;;;4.13;3.28;;;;;;;18.64;59.93;98869.50;5111861;28;20081;-82
2021/05/30 01:05:53;;;;;;;3.47;3.17;;;;;;;18.60;60.12;98871.25;5110298;28;20027;-82
2021/05/30 01:08:26;;;;;;;3.72;3.42;;;;;;;18.58;60.26;98873.53;5110345;28;20034;-82
2021/05/30 01:10:56;;;;;;;7.80;3.45;;;;;;;18.55;60.85;98872.28;5110165;28;20043;-82
2021/05/30 01:13:23;;;;;;;4.40;4.00;;;;;;;18.49;61.34;98870.09;5110269;28;20027;-82
2021/05/30 01:15:48;;;;;;;3.70;3.40;;;;;;;18.45;61.40;98869.19;5111403;28;20027;-82
2021/05/30 01:18:20;;;;;;;3.38;3.10;;;;;;;18.43;61.62;98874.16;5110731;28;20421;-82
2021/05/30 01:20:46;;;;;;;4.70;3.60;;;;;;;18.37;61.58;98862.72;5114456;28;20027;-82
2021/05/30 01:23:14;;;;;;;4.80;3.38;;;;;;;18.36;61.48;98869.28;5114549;28;20515;-82
2021/05/30 01:25:40;;;;;;;4.03;3.10;;;;;;;18.32;61.51;98871.06;5113825;28;20065;-82
2021/05/30 01:28:06;;;;;;;8.20;3.20;;;;;;;18.30;61.38;98870.59;5114046;28;20380;-82
2021/05/30 01:30:32;;;;;;;3.17;2.97;;;;;;;18.29;61.40;98872.50;5114243;28;20041;-82
2021/05/30 01:32:58;;;;;;;3.70;3.40;;;;;;;18.32;61.49;98873.75;5113959;28;20051;-82
2021/05/30 01:35:23;;;;;;;3.45;3.15;;;;;;;18.33;61.68;98875.34;5114119;28;20047;-82
2021/05/30 01:37:51;;;;;;;4.50;3.50;;;;;;;18.28;61.41;98862.78;5113859;28;20024;-82
2021/05/30 01:40:17;;;;;;;3.93;3.37;;;;;;;18.26;61.59;98872.38;5114216;28;20129;-82
2021/05/30 01:42:43;;;;;;;3.00;2.85;;;;;;;18.24;61.86;98870.00;5113970;28;20024;-82
2021/05/30 01:45:10;;;;;;;3.95;3.47;;;;;;;18.20;61.74;98869.88;5113778;28;20012;-82
2021/05/30 01:47:37;;;;;;;3.50;3.20;;;;;;;18.16;61.57;98870.88;5115727;28;20375;-82
2021/05/30 01:50:04;;;;;;;2.88;2.67;;;;;;;18.14;61.78;98865.78;5113655;28;20080;-83
2021/05/30 01:52:30;;;;;;;3.67;3.00;;;;;;;18.12;61.50;98867.25;5113716;28;20024;-82
2021/05/30 01:54:55;;;;;;;4.75;3.42;;;;;;;18.05;61.51;98868.56;5114802;28;20020;-82
2021/05/30 01:57:21;;;;;;;5.03;3.47;;;;;;;18.06;61.58;98862.00;5113739;28;20028;-82
2021/05/30 01:59:46;;;;;;;4.15;2.78;;;;;;;18.04;61.33;98860.75;5113676;28;20023;-82
2021/05/30 02:02:12;;;;;;;7.15;3.38;;;;;;;18.03;61.30;98859.19;5113547;28;20084;-82
2021/05/30 02:04:44;;;;;;;4.43;2.97;;;;;;;18.03;61.01;98862.69;5113574;28;20024;-82
2021/05/30 02:07:10;;;;;;;3.45;3.15;;;;;;;18.04;60.86;98866.16;5113281;28;20024;-82
2021/05/30 02:09:37;;;;;;;4.68;3.10;;;;;;;18.02;60.91;98863.81;5113493;28;20024;-82
2021/05/30 02:12:06;;;;;;;2.97;2.67;;;;;;;17.99;61.00;98858.25;5113288;28;20023;-82
2021/05/30 02:14:32;;;;;;;3.65;3.35;;;;;;;18.02;60.99;98863.03;5113300;28;20436;-83
2021/05/30 02:16:57;;;;;;;4.38;2.92;;;;;;;18.01;61.00;98873.03;5114744;28;20061;-82
2021/05/30 02:19:23;;;;;;;11.98;3.05;;;;;;;18.03;61.09;98875.44;5113325;28;20012;-82
2021/05/30 02:21:50;;;;;;;5.40;2.90;;;;;;;18.05;61.18;98878.59;5113258;28;20024;-82
2021/05/30 02:24:19;;;;;;;5.80;2.90;;;;;;;18.04;60.46;98882.41;5114852;28;20024;-82
2021/05/30 02:26:45;;;;;;;4.30;3.90;;;;;;;18.00;60.27;98881.50;5112982;28;20776;-82
2021/05/30 02:29:37;;;;;;;3.25;2.92;;;;;;;17.97;59.83;98890.25;5113097;28;20019;-82
2021/05/30 02:32:05;;;;;;;3.13;2.83;;;;;;;17.93;59.65;98885.50;5112289;28;20075;-82
2021/05/30 02:34:30;;;;;;;3.07;2.80;;;;;;;17.88;59.02;98882.97;5113130;28;20462;-82
2021/05/30 02:36:56;;;;;;;2.95;2.75;;;;;;;17.84;58.59;98889.38;5112898;28;20034;-82
2021/05/30 02:39:21;;;;;;;2.70;2.50;;;;;;;17.81;58.34;98890.81;5114467;28;20450;-82
2021/05/30 02:41:47;;;;;;;3.95;3.55;;;;;;;17.75;57.50;98895.63;5112993;28;20016;-82
2021/05/30 02:44:12;;;;;;;3.75;3.40;;;;;;;17.69;57.76;98880.72;5112677;28;20386;-82
2021/05/30 02:46:38;;;;;;;3.72;3.08;;;;;;;17.66;57.24;98892.16;5114444;28;20363;-82
2021/05/30 02:49:03;;;;;;;3.13;2.92;;;;;;;17.62;57.46;98883.13;5112762;28;20047;-82
2021/05/30 02:51:29;;;;;;;3.38;3.15;;;;;;;17.56;57.26;98890.63;5113858;28;20019;-82
2021/05/30 02:53:54;;;;;;;3.72;3.42;;;;;;;17.53;57.42;98885.09;5112421;28;20026;-83
2021/05/30 02:56:20;;;;;;;3.83;3.53;;;;;;;17.49;57.19;98889.56;5112888;28;20031;-83
2021/05/30 02:58:45;;;;;;;3.47;3.13;;;;;;;17.43;58.04;98892.47;5114217;28;20023;-83
2021/05/30 03:01:10;;;;;;;2.92;2.72;;;;;;;17.38;58.15;98889.94;5112522;28;20568;-83
2021/05/30 03:03:36;;;;;;;3.60;3.30;;;;;;;17.35;58.58;98887.88;5112493;28;20118;-83
2021/05/30 03:06:01;;;;;;;3.67;3.38;;;;;;;17.32;59.17;98895.84;5113559;28;20098;-82
2021/05/30 03:08:27;;;;;;;3.72;3.20;;;;;;;17.28;59.28;98882.19;5113575;28;20500;-82
2021/05/30 03:10:52;;;;;;;5.15;3.10;;;;;;;17.26;59.40;98885.22;5112295;28;20027;-82
2021/05/30 03:13:18;;;;;;;3.22;2.72;;;;;;;17.22;59.71;98900.50;5113973;28;20016;-82
2021/05/30 03:15:43;;;;;;;6.88;3.22;;;;;;;17.21;59.55;98896.22;5112200;28;20019;-82
2021/05/30 03:18:08;;;;;;;3.45;2.97;;;;;;;17.21;59.15;98895.41;5112049;28;20111;-82
2021/05/30 03:20:34;;;;;;;5.82;3.55;;;;;;;17.21;59.38;98888.09;5112167;28;20019;-83
2021/05/30 03:23:00;;;;;;;4.10;3.35;;;;;;;17.24;59.11;98892.06;5111978;28;20019;-81
2021/05/30 03:25:26;;;;;;;3.55;3.28;;;;;;;17.28;59.46;98888.41;5113905;28;20100;-82
2021/05/30 03:27:51;;;;;;;3.85;2.75;;;;;;;17.33;59.16;98882.00;5111869;28;20035;-82
2021/05/30 03:30:17;;;;;;;4.75;3.42;;;;;;;17.37;59.07;98891.06;5111826;28;20469;-82
2021/05/30 03:32:42;;;;;;;6.88;4.40;;;;;;;17.41;59.20;98889.28;5111961;28;20015;-82
2021/05/30 03:35:08;;;;;;;4.57;3.00;;;;;;;17.45;58.92;98894.81;5111567;28;20428;-82
2021/05/30 03:37:34;;;;;;;3.42;3.13;;;;;;;17.46;58.72;98892.94;5113056;28;20110;-83
2021/05/30 03:40:04;;;;;;;4.10;3.05;;;;;;;17.49;58.60;98898.47;5111755;28;20028;-82
2021/05/30 03:42:32;;;;;;;14.32;7.40;;;;;;;17.52;58.97;98897.81;5112055;28;20028;-82
2021/05/30 03:44:58;;;;;;;5.40;3.53;;;;;;;17.58;58.82;98898.44;5111535;28;20073;-82
2021/05/30 03:47:24;;;;;;;3.08;2.78;;;;;;;17.57;58.30;98903.03;5111741;28;20031;-81
2021/05/30 03:49:50;;;;;;;7.30;3.63;;;;;;;17.59;58.76;98905.44;5111671;28;20050;-81
2021/05/30 03:52:15;;;;;;;3.25;3.05;;;;;;;17.57;58.78;98905.72;5110996;28;20479;-82
2021/05/30 03:54:41;;;;;;;3.13;2.83;;;;;;;17.59;58.86;98900.03;5111392;28;20126;-81
2021/05/30 03:57:07;;;;;;;3.78;3.40;;;;;;;17.61;58.83;98905.88;5111235;28;20023;-81
2021/05/30 03:59:32;;;;;;;4.60;3.15;;;;;;;17.60;58.50;98902.38;5111457;28;20016;-81
2021/05/30 04:01:58;;;;;;;2.53;2.42;;;;;;;17.56;58.85;98906.84;5112222;28;20463;-81
2021/05/30 04:04:23;;;;;;;2.95;2.75;;;;;;;17.56;58.71;98900.66;5111490;28;20384;-81
2021/05/30 04:06:49;;;;;;;8.60;4.10;;;;;;;17.52;58.94;98902.44;5111210;28;20064;-81
2021/05/30 04:09:14;;;;;;;8.20;4.32;;;;;;;17.57;59.33;98902.25;5111122;28;20066;-82
2021/05/30 04:11:39;;;;;;;3.53;3.20;;;;;;;17.58;59.35;98899.22;5110932;28;20088;-82
2021/05/30 04:14:05;;;;;;;3.22;2.92;;;;;;;17.56;59.10;98893.31;5110810;28;20028;-81
2021/05/30 04:16:30;;;;;;;3.95;3.65;;;;;;;17.61;59.12;98895.06;5111210;28;20027;-81
2021/05/30 04:18:56;;;;;;;3.28;2.85;;;;;;;17.64;59.20;98899.84;5111101;28;20098;-81
2021/05/30 04:21:21;;;;;;;3.30;3.08;;;;;;;17.66;59.36;98899.50;5111076;28;20028;-81
2021/05/30 04:23:47;;;;;;;3.30;3.00;;;;;;;17.66;59.07;98900.28;5111627;28;20026;-80
2021/05/30 04:26:13;;;;;;;4.43;4.03;;;;;;;17.68;59.49;98894.56;5112132;28;20035;-81
2021/05/30 04:28:38;;;;;;;3.78;3.50;;;;;;;17.71;59.68;98900.09;5113554;28;20110;-81
2021/05/30 04:31:04;;;;;;;4.40;3.63;;;;;;;17.71;59.56;98891.19;5114216;28;20024;-81
2021/05/30 04:33:30;;;;;;;4.05;3.75;;;;;;;17.78;59.93;98896.88;5113978;28;20023;-81
2021/05/30 04:35:55;;;;;;;3.95;3.40;;;;;;;17.82;59.46;98903.22;5113766;28;20385;-81
2021/05/30 04:38:21;;;;;;;4.18;3.78;;;;;;;17.87;59.65;98900.34;5112511;28;20023;-81
2021/05/30 04:40:47;;;;;;;4.85;3.50;;;;;;;17.91;59.55;98903.19;5112097;28;20534;-82
2021/05/30 04:43:13;;;;;;;5.85;3.47;;;;;;;17.98;59.23;98908.06;5111569;28;20069;-82
2021/05/30 04:45:38;;;;;;;6.32;3.20;;;;;;;18.04;59.52;98912.16;5112618;28;20047;-82
2021/05/30 04:48:04;;;;;;;4.28;3.97;;;;;;;18.07;60.00;98909.59;5111194;28;20116;-82
2021/05/30 04:50:29;;;;;;;3.28;2.97;;;;;;;18.16;58.91;98911.47;5110763;28;20359;-82
2021/05/30 04:52:55;;;;;;;3.72;3.40;;;;;;;18.21;59.14;98913.97;5110763;28;20070;-81
2021/05/30 04:55:20;;;;;;;6.13;4.05;;;;;;;18.28;59.16;98916.16;5110501;28;20020;-83
2021/05/30 04:57:46;;;;;;;3.35;2.72;;;;;;;18.32;58.99;98911.66;5112251;28;20031;-82
2021/05/30 05:00:12;;;;;;;5.43;4.35;;;;;;;18.32;59.64;98912.47;5110647;28;20016;-82
2021/05/30 05:02:38;;;;;;;3.38;3.03;;;;;;;18.35;58.92;98922.63;5110561;28;20042;-82
2021/05/30 05:05:05;;;;;;;3.20;2.97;;;;;;;18.36;58.97;98918.78;5110298;28;20455;-81
2021/05/30 05:07:31;;;;;;;3.50;3.03;;;;;;;18.37;58.83;98922.28;5110512;28;20462;-81
2021/05/30 05:09:56;;;;;;;3.20;2.90;;;;;;;18.36;58.52;98921.50;5110566;28;20084;-80
2021/05/30 05:12:22;;;;;;;2.75;2.55;;;;;;;18.37;58.57;98920.38;5110312;28;20015;-80
2021/05/30 05:14:47;;;;;;;2.75;2.55;;;;;;;18.43;58.47;98931.81;5110312;28;20457;-81
2021/05/30 05:17:12;;;;;;;2.72;2.53;;;;;;;18.48;58.67;98931.59;5110106;28;20020;-83
2021/05/30 05:19:38;;;;;;;2.35;2.10;;;;;;;18.58;57.84;98937.72;5110289;28;20058;-81
2021/05/30 05:22:04;;;;;;;2.58;2.40;;;;;;;18.61;58.05;98937.06;5109864;28;20027;-81
2021/05/30 05:24:29;;;;;;;2.67;2.47;;;;;;;18.66;58.14;98934.97;5110263;28;20030;-81
2021/05/30 05:26:55;;;;;;;2.58;2.38;;;;;;;18.66;57.13;98929.53;5111410;28;20055;-81
2021/05/30 05:29:21;;;;;;;2.60;2.40;;;;;;;18.66;56.82;98932.25;5109913;28;20624;-80
2021/05/30 05:31:46;;;;;;;2.80;2.60;;;;;;;18.72;57.36;98936.34;5110251;28;20027;-80
2021/05/30 05:34:11;;;;;;;2.25;2.15;;;;;;;18.76;57.63;98922.91;5111072;28;20023;-81
2021/05/30 05:36:37;;;;;;;3.45;2.15;;;;;;;18.83;57.48;98930.47;5110163;28;20020;-81
2021/05/30 05:39:03;;;;;;;2.63;2.42;;;;;;;18.87;56.97;98929.50;5110480;28;20053;-80
2021/05/30 05:41:29;;;;;;;2.95;2.75;;;;;;;18.95;56.66;98935.19;5110666;28;20028;-81
2021/05/30 05:43:55;;;;;;;2.63;2.33;;;;;;;18.99;57.31;98933.38;5110500;28;20023;-81
2021/05/30 05:46:20;;;;;;;2.80;2.60;;;;;;;19.06;56.61;98938.25;5109765;28;20122;-80
2021/05/30 05:48:46;;;;;;;3.15;2.95;;;;;;;19.13;56.09;98930.38;5111479;28;20191;-80
2021/05/30 05:51:11;;;;;;;3.92;2.55;;;;;;;19.25;56.25;98927.69;5109736;28;20026;-80
2021/05/30 05:53:36;;;;;;;3.47;2.15;;;;;;;19.36;55.80;98931.53;5109891;28;20020;-80
2021/05/30 05:56:02;;;;;;;3.45;2.72;;;;;;;19.48;56.00;98929.94;5109881;28;20042;-81
2021/05/30 05:58:28;;;;;;;2.95;2.75;;;;;;;19.59;54.91;98931.09;5109816;28;20011;-80
2021/05/30 06:00:53;;;;;;;3.03;2.03;;;;;;;19.61;52.44;98920.69;5109759;28;20492;-80
2021/05/30 06:03:18;;;;;;;2.67;2.47;;;;;;;19.64;51.29;98924.63;5109499;28;20450;-81
2021/05/30 06:05:44;;;;;;;3.35;2.95;;;;;;;19.69;52.58;98919.00;5113653;28;20055;-81
2021/05/30 06:08:09;;;;;;;2.45;2.20;;;;;;;19.73;52.06;98919.13;5113317;28;20412;-80
2021/05/30 06:10:35;;;;;;;5.68;1.83;;;;;;;19.75;50.67;98922.25;5113349;28;20023;-80
2021/05/30 06:13:08;;;;;;;2.97;2.58;;;;;;;19.79;50.05;98915.81;5113417;28;20026;-81
2021/05/30 06:15:34;;;;;;;2.20;2.10;;;;;;;19.84;49.12;98921.03;5113388;28;20385;-80
2021/05/30 06:18:06;;;;;;;2.55;2.35;;;;;;;19.95;48.43;98926.78;5114400;28;20501;-80
2021/05/30 06:20:32;;;;;;;4.32;1.92;;;;;;;20.09;47.10;98923.72;5113288;28;20031;-80
2021/05/30 06:22:57;;;;;;;2.67;2.38;;;;;;;20.18;47.11;98923.59;5113249;28;20023;-81
2021/05/30 06:25:26;;;;;;;9.93;3.85;;;;;;;20.29;45.81;98924.69;5112975;28;20030;-81
2021/05/30 06:27:51;;;;;;;6.30;4.20;;;;;;;20.38;46.49;98923.75;5113003;28;20036;-81
2021/05/30 06:30:18;;;;;;;9.75;5.22;;;;;;;20.47;46.75;98919.78;5112692;28;20020;-81
2021/05/30 06:32:43;;;;;;;5.43;3.45;;;;;;;20.57;46.54;98920.41;5112968;28;20478;-81
2021/05/30 06:35:09;;;;;;;9.30;4.55;;;;;;;20.68;47.15;98920.69;5113634;28;20027;-82
2021/05/30 06:37:35;;;;;;;4.43;2.95;;;;;;;20.79;46.49;98924.53;5112918;28;20020;-80
2021/05/30 06:40:00;;;;;;;2.47;2.28;;;;;;;20.88;46.42;98919.72;5112963;28;20027;-80
2021/05/30 06:42:25;;;;;;;2.42;2.10;;;;;;;20.98;46.06;98926.56;5112622;28;20368;-81
2021/05/30 06:44:51;;;;;;;2.42;2.28;;;;;;;21.07;45.40;98913.63;5112795;28;20092;-81
2021/05/30 06:47:16;;;;;;;1.95;1.85;;;;;;;21.22;45.06;98920.19;5112528;28;20100;-82
2021/05/30 06:49:42;;;;;;;4.43;2.05;;;;;;;21.36;42.80;98919.78;5112765;28;20053;-81
2021/05/30 06:52:07;;;;;;;2.53;2.28;;;;;;;21.47;43.78;98921.94;5112368;28;20023;-80
2021/05/30 06:54:34;;;;;;;2.10;2.00;;;;;;;21.49;42.23;98917.72;5112520;28;20020;-80
2021/05/30 06:57:00;;;;;;;4.13;2.20;;;;;;;21.52;42.10;98924.41;5112464;28;20062;-80
2021/05/30 06:59:25;;;;;;;3.42;1.73;;;;;;;21.55;41.46;98918.25;5113296;28;20114;-80
2021/05/30 07:01:51;;;;;;;2.45;1.77;;;;;;;21.59;40.89;98919.16;5112443;28;20023;-81
2021/05/30 07:04:16;;;;;;;2.00;1.90;;;;;;;21.59;41.02;98925.41;5112240;28;20058;-80
2021/05/30 07:06:42;;;;;;;2.10;2.00;;;;;;;21.66;41.49;98915.81;5113779;28;20661;-81
2021/05/30 07:09:07;;;;;;;1.92;1.83;;;;;;;21.70;40.13;98917.50;5111723;28;20027;-81
2021/05/30 07:11:33;;;;;;;5.38;2.15;;;;;;;21.70;40.40;98911.25;5112299;28;20024;-81
2021/05/30 07:13:59;;;;;;;3.38;3.08;;;;;;;21.77;41.25;98916.84;5112190;28;20028;-80
2021/05/30 07:16:25;;;;;;;2.15;1.90;;;;;;;21.85;40.93;98915.88;5112293;28;20031;-80
2021/05/30 07:18:51;;;;;;;1.75;1.63;;;;;;;21.87;39.13;98910.88;5113730;28;20110;-80
2021/05/30 07:21:16;;;;;;;1.73;1.60;;;;;;;21.94;37.68;98915.66;5113165;28;20035;-80
2021/05/30 07:23:42;;;;;;;1.70;1.60;;;;;;;22.05;38.06;98916.69;5113308;28;20020;-80
2021/05/30 07:26:08;;;;;;;1.92;1.80;;;;;;;22.22;40.23;98910.03;5111815;28;20089;-81
2021/05/30 07:28:33;;;;;;;2.00;1.90;;;;;;;22.38;39.06;98909.22;5112539;28;20019;-81
2021/05/30 07:30:59;;;;;;;1.88;1.58;;;;;;;22.51;37.45;98905.19;5113584;28;20451;-81
2021/05/30 07:33:24;;;;;;;1.60;1.50;;;;;;;22.65;37.45;98909.34;5111807;28;20020;-81
2021/05/30 07:35:50;;;;;;;1.80;1.70;;;;;;;22.71;36.86;98905.19;5113289;28;20076;-82
2021/05/30 07:38:16;;;;;;;1.65;1.55;;;;;;;22.77;37.76;98900.22;5112911;28;20023;-81
2021/05/30 07:40:42;;;;;;;2.33;1.80;;;;;;;22.95;38.28;98904.06;5113311;28;20047;-82
2021/05/30 07:43:07;;;;;;;2.20;2.05;;;;;;;22.99;36.58;98895.94;5111830;28;20058;-82
2021/05/30 07:45:33;;;;;;;2.65;2.35;;;;;;;23.06;36.73;98898.00;5111521;28;20096;-82
2021/05/30 07:47:59;;;;;;;2.42;1.60;;;;;;;23.12;35.37;98902.78;5113203;28;20031;-81
2021/05/30 07:50:25;;;;;;;2.20;2.00;;;;;;;23.16;36.10;98891.94;5111448;28;20132;-82
2021/05/30 07:52:51;;;;;;;1.95;1.85;;;;;;;23.36;37.64;98894.63;5111524;28;20031;-82
2021/05/30 07:55:17;;;;;;;2.17;1.98;;;;;;;23.46;37.01;98897.53;5111538;28;20410;-82
2021/05/30 07:57:44;;;;;;;2.72;2.22;;;;;;;23.57;37.35;98892.22;5111390;28;20020;-81
2021/05/30 08:00:13;;;;;;;2.97;1.63;;;;;;;23.74;37.64;98899.09;5111368;28;20066;-80
2021/05/30 08:02:39;;;;;;;3.03;2.55;;;;;;;23.92;36.67;98887.63;5111383;28;20484;-81
2021/05/30 08:05:06;;;;;;;3.03;2.17;;;;;;;24.12;37.63;98882.84;5112413;28;20066;-80
2021/05/30 08:07:31;;;;;;;2.63;1.50;;;;;;;24.23;37.25;98888.44;5112498;28;20023;-81
2021/05/30 08:09:57;;;;;;;1.77;1.67;;;;;;;24.33;36.43;98878.78;5111148;28;20024;-80
2021/05/30 08:12:23;;;;;;;2.03;1.83;;;;;;;24.28;35.96;98880.69;5111000;28;20022;-81
2021/05/30 08:14:48;;;;;;;5.65;3.25;;;;;;;24.26;36.13;98876.78;5111098;28;20175;-82
2021/05/30 08:17:14;;;;;;;2.20;1.95;;;;;;;24.23;35.52;98886.50;5110760;28;20027;-82
2021/05/30 08:19:39;;;;;;;2.05;1.90;;;;;;;24.21;35.62;98868.91;5112696;28;20035;-82
2021/05/30 08:22:05;;;;;;;2.88;2.65;;;;;;;24.31;35.67;98879.16;5111068;28;20021;-82
2021/05/30 08:24:31;;;;;;;4.15;2.17;;;;;;;24.41;36.23;98869.53;5110625;28;20040;-82
2021/05/30 08:26:57;;;;;;;6.50;3.38;;;;;;;24.39;34.67;98880.84;5110573;28;20146;-83
2021/05/30 08:29:24;;;;;;;3.92;2.22;;;;;;;24.38;35.00;98887.44;5112020;28;20379;-82
2021/05/30 08:31:52;;;;;;;1.80;1.70;;;;;;;24.41;34.74;98883.19;5110992;28;20030;-81
2021/05/30 08:34:19;;;;;;;1.92;1.83;;;;;;;24.35;35.23;98876.47;5112419;28;20067;-81
2021/05/30 08:36:45;;;;;;;5.60;2.00;;;;;;;24.40;35.87;98882.41;5112231;28;20270;-81
2021/05/30 08:39:11;;;;;;;1.60;1.50;;;;;;;24.45;36.22;98879.34;5110848;28;20050;-81
2021/05/30 08:41:37;;;;;;;2.58;1.75;;;;;;;24.51;34.85;98882.53;5111339;28;20479;-82
2021/05/30 08:44:02;;;;;;;1.67;1.58;;;;;;;24.41;33.78;98875.78;5110633;28;20073;-84
2021/05/30 08:46:31;;;;;;;1.60;1.50;;;;;;;24.29;34.24;98881.47;5110104;28;20019;-84
2021/05/30 08:48:58;;;;;;;2.28;1.73;;;;;;;24.24;35.13;98881.81;5112090;28;20095;-84
2021/05/30 08:51:24;;;;;;;1.90;1.80;;;;;;;24.18;34.43;98873.19;5110321;28;20097;-83
2021/05/30 08:53:51;;;;;;;1.92;1.63;;;;;;;24.07;35.62;98870.31;5112005;28;20272;-83
2021/05/30 08:56:17;;;;;;;2.83;1.85;;;;;;;23.93;35.13;98870.13;5110230;28;20282;-82
2021/05/30 08:58:49;;;;;;;1.77;1.65;;;;;;;23.90;35.71;98870.81;5110839;28;20119;-82
2021/05/30 09:01:23;;;;;;;1.85;1.70;;;;;;;23.85;35.80;98873.88;5110098;28;20050;-80
2021/05/30 09:04:04;;;;;;;2.22;1.75;;;;;;;23.82;35.44;98865.25;5110277;28;20020;-80
2021/05/30 09:06:30;;;;;;;2.30;2.10;;;;;;;23.82;35.20;98870.72;5110017;28;20016;-81
2021/05/30 09:08:55;;;;;;;2.25;2.05;;;;;;;23.80;34.95;98858.59;5110096;28;20039;-82
2021/05/30 09:11:50;;;;;;;1.70;1.60;;;;;;;23.89;35.52;98863.78;5110002;28;20398;-82
2021/05/30 09:14:21;;;;;;;3.40;2.08;;;;;;;24.01;35.78;98862.81;5109994;28;20043;-81
2021/05/30 09:17:00;;;;;;;2.28;1.80;;;;;;;24.12;35.53;98856.31;5110299;28;20026;-81
2021/05/30 09:19:37;;;;;;;1.95;1.85;;;;;;;24.25;35.08;98851.38;5110077;28;20446;-81
2021/05/30 09:22:16;;;;;;;1.95;1.85;;;;;;;24.38;34.38;98845.69;5109738;28;20055;-81
2021/05/30 09:25:02;;;;;;;1.65;1.55;;;;;;;24.43;35.61;98848.06;5111447;28;20022;-81
2021/05/30 09:27:29;;;;;;;1.80;1.70;;;;;;;24.59;35.36;98839.66;5109639;28;20061;-81
2021/05/30 09:30:11;;;;;;;1.77;1.63;;;;;;;24.70;35.28;98832.34;5110210;28;20197;-81
2021/05/30 09:32:52;;;;;;;1.90;1.80;;;;;;;24.71;35.37;98833.16;5109868;28;20092;-81
2021/05/30 09:35:18;;;;;;;2.00;1.90;;;;;;;24.74;35.30;98838.66;5109806;28;20026;-81
2021/05/30 09:37:43;;;;;;;2.45;1.65;;;;;;;24.71;34.68;98835.88;5110769;28;20114;-82
2021/05/30 09:40:09;;;;;;;2.90;1.80;;;;;;;24.65;34.63;98832.66;5111895;28;20477;-82
2021/05/30 09:42:37;;;;;;;2.75;2.30;;;;;;;24.61;36.93;98835.38;5113095;28;20040;-82
2021/05/30 09:45:08;;;;;;;4.32;1.88;;;;;;;24.70;37.38;98843.28;5113672;28;20389;-81
2021/05/30 09:47:43;;;;;;;2.42;2.15;;;;;;;24.78;35.39;98841.44;5114038;28;20466;-82
2021/05/30 09:50:11;;;;;;;2.55;1.60;;;;;;;24.81;35.14;98839.88;5113785;28;20020;-82
2021/05/30 09:52:41;;;;;;;3.72;1.98;;;;;;;24.74;35.79;98838.66;5113512;28;20035;-82
2021/05/30 09:55:13;;;;;;;2.75;1.70;;;;;;;24.64;35.65;98825.63;5113708;28;20027;-82
2021/05/30 09:57:39;;;;;;;3.08;1.85;;;;;;;24.53;36.64;98830.22;5113494;28;20031;-81
2021/05/30 10:00:06;;;;;;;3.80;2.50;;;;;;;24.51;36.91;98836.06;5113655;28;20016;-81
2021/05/30 10:02:34;;;;;;;1.73;1.63;;;;;;;24.48;36.50;98831.34;5113459;28;20118;-81
2021/05/30 10:05:00;;;;;;;2.00;1.90;;;;;;;24.46;35.96;98828.97;5113668;28;20012;-81
2021/05/30 10:07:26;;;;;;;3.67;2.03;;;;;;;24.41;35.91;98837.53;5113418;28;20115;-81
2021/05/30 10:09:52;;;;;;;2.10;1.90;;;;;;;24.35;36.13;98836.28;5113558;28;20453;-81
2021/05/30 10:12:19;;;;;;;2.38;2.17;;;;;;;24.35;36.07;98830.81;5113208;28;20034;-83
2021/05/30 10:14:44;;;;;;;2.20;1.73;;;;;;;24.34;35.77;98826.50;5113514;28;20030;-82
2021/05/30 10:17:11;;;;;;;2.38;2.08;;;;;;;24.37;36.57;98833.94;5113405;28;20114;-81
2021/05/30 10:19:46;;;;;;;2.25;2.08;;;;;;;24.38;35.96;98824.59;5113145;28;20629;-81
2021/05/30 10:22:12;;;;;;;3.03;2.25;;;;;;;24.42;36.11;98833.59;5113425;28;20020;-81
2021/05/30 10:24:42;;;;;;;1.88;1.77;;;;;;;24.41;35.92;98839.47;5113109;28;20028;-82
2021/05/30 10:27:32;;;;;;;2.20;1.80;;;;;;;24.28;35.68;98836.97;5113061;28;20056;-83
2021/05/30 10:30:06;;;;;;;2.00;1.80;;;;;;;24.28;35.92;98836.97;5113082;28;20026;-81
2021/05/30 10:32:32;;;;;;;2.08;1.98;;;;;;;24.28;36.07;98836.22;5115132;28;20020;-82
2021/05/30 10:35:11;;;;;;;1.95;1.80;;;;;;;24.24;36.72;98832.63;5113457;28;20024;-81
2021/05/30 10:37:42;;;;;;;1.95;1.85;;;;;;;24.20;37.75;98840.00;5114185;27;20027;-81
2021/05/30 10:40:30;;;;;;;3.28;2.53;;;;;;;24.14;38.07;98845.00;5113182;28;20027;-82
2021/05/30 10:43:08;;;;;;;2.30;2.05;;;;;;;24.20;38.30;98837.28;5113146;28;20032;-82
2021/05/30 10:45:34;;;;;;;;;;;;;;;24.18;38.17;98836.84;5113597;28;20027;-82
2021/05/30 10:48:02;;;;;;;3.85;3.45;;;;;;;24.21;37.97;98838.84;5114012;28;19904;-82
2021/05/30 10:50:37;;;;;;;4.28;3.88;;;;;;;24.24;37.86;98841.63;5113831;28;20023;-82
2021/05/30 10:53:04;;;;;;;3.38;2.00;;;;;;;24.22;37.73;98846.69;5112847;28;20386;-83
2021/05/30 10:55:32;;;;;;;4.10;2.08;;;;;;;24.29;36.89;98840.50;5113540;28;20020;-82
2021/05/30 10:58:12;;;;;;;2.08;1.83;;;;;;;24.33;37.87;98840.53;5112693;28;20077;-82
2021/05/30 11:00:38;;;;;;;2.30;2.10;;;;;;;24.37;37.74;98846.84;5112455;28;20390;-82
2021/05/30 11:03:04;;;;;;;3.03;2.40;;;;;;;24.43;37.59;98842.59;5112469;28;20081;-82
2021/05/30 11:05:41;;;;;;;2.40;2.20;;;;;;;24.34;36.65;98842.91;5113793;28;20426;-81
2021/05/30 11:08:07;;;;;;;2.40;2.10;;;;;;;24.29;36.36;98844.03;5112235;28;20031;-82
2021/05/30 11:10:34;;;;;;;2.53;1.70;;;;;;;24.27;37.13;98840.09;5112038;28;20024;-80
2021/05/30 11:13:03;;;;;;;2.63;2.33;;;;;;;24.28;37.43;98841.69;5112093;28;20039;-80
2021/05/30 11:15:30;;;;;;;2.10;1.90;;;;;;;24.26;37.75;98843.97;5111819;28;20019;-82
2021/05/30 11:17:58;;;;;;;2.17;2.08;;;;;;;24.20;38.29;98846.25;5112114;28;20023;-82
2021/05/30 11:20:39;;;;;;;2.45;2.25;;;;;;;24.19;38.37;98841.16;5111961;28;20118;-81
2021/05/30 11:23:11;;;;;;;2.50;2.03;;;;;;;24.14;37.71;98837.63;5112205;28;20023;-81
2021/05/30 11:25:36;;;;;;;3.38;2.33;;;;;;;24.07;37.96;98834.81;5111864;28;20432;-81
2021/05/30 11:28:10;;;;;;;2.95;2.50;;;;;;;24.01;38.15;98836.28;5111741;28;20051;-81
2021/05/30 11:30:50;;;;;;;2.63;2.20;;;;;;;23.99;38.14;98841.31;5111620;28;20027;-81
2021/05/30 11:33:27;;;;;;;5.28;2.88;;;;;;;23.93;38.49;98837.34;5112037;28;20020;-81